Skip Navigation Links Skip Navigation Links

Current Weather

Leland, Ill.

For information only: do not use for flight planning or navigation.
Latest weather
Observation time Tuesday, October 19, 2021 4:15 AM CDT
Local time Tuesday, October 19, 2021 4:29 AM CDT
Flight conditions Marginal Visual Meteorological Conditions
Winds
Wind speed calm
Visibility 10 mi.
Sky condition
Ceiling 1,300 ft. broken clouds
Cloud layer broken clouds 1,300 ft.
Cloud layer broken clouds 3,300 ft.
Temperature 41°F
Dewpoint 39°F
Altimeter 30.07 in.Hg
Derived measurements
Relative humidity 93%
Wind chill 41°F
Density altitude -581 ft.
Remarks
Fully automated report.
Automated weather observing station with precipitation discriminator.
Present weather sensor not operating.
Precipitation sensor not operating.
METAR KE16 190915Z AUTO 00000KT 10SM BKN013 BKN033 05/04 A3007 RMK AO2 PWINO PNO

Settings

Location code

InnerDrive.Weather 4.0.6770.0 Release CLR 4.0.30319.42000
Copyright ©2018 Inner Drive Technology. All rights reserved. Portions Copyright ©1986-2018 David Braverman.

Find weather

Site navigation


Skip Navigation Links

Place info

Page info

PayPal - The safer, easier way to pay online!

Return home.

Copyright ©2021 Inner Drive Technology. Purveyors of fine, hand-crafted computer software. Page printed 2021-10-19T09:29:40 UTC.